createdAt,value
2018-08-11T00:01:57.482Z,1.50
2018-08-11T00:04:31.831Z,1.40
2018-08-11T00:07:06.146Z,1.40
2018-08-11T00:09:40.350Z,1.67
2018-08-11T00:12:14.545Z,1.40
2018-08-11T00:14:48.802Z,1.70
2018-08-11T00:17:23.130Z,1.10
2018-08-11T00:19:57.399Z,1.43
2018-08-11T00:22:31.669Z,1.60
2018-08-11T00:25:06.271Z,1.20
2018-08-11T00:27:40.634Z,1.17
2018-08-11T00:30:16.375Z,1.30
2018-08-11T00:32:50.685Z,1.20
2018-08-11T00:35:24.979Z,1.17
2018-08-11T00:37:59.275Z,1.57
2018-08-11T00:40:33.589Z,1.13
2018-08-11T00:43:07.885Z,1.30
2018-08-11T00:45:42.201Z,1.13
2018-08-11T00:48:16.499Z,1.50
2018-08-11T00:50:50.866Z,1.20
2018-08-11T00:53:25.000Z,1.10
2018-08-11T00:55:59.498Z,1.23
2018-08-11T00:58:33.769Z,1.13
2018-08-11T01:01:08.057Z,1.13
2018-08-11T01:03:42.354Z,1.27
2018-08-11T01:06:16.714Z,1.00
2018-08-11T01:08:50.849Z,1.00
2018-08-11T01:11:25.170Z,1.10
2018-08-11T01:13:59.467Z,1.03
2018-08-11T01:16:33.842Z,0.97
2018-08-11T01:19:08.130Z,1.00
2018-08-11T01:21:42.469Z,0.97
2018-08-11T01:24:16.749Z,1.10
2018-08-11T01:26:51.090Z,0.90
2018-08-11T01:29:25.848Z,1.20
2018-08-11T01:31:59.994Z,1.00
2018-08-11T01:34:34.323Z,1.20
2018-08-11T01:37:08.650Z,1.00
2018-08-11T01:39:42.891Z,1.10
2018-08-11T01:42:17.205Z,1.10
2018-08-11T01:44:51.465Z,0.77
2018-08-11T01:47:25.738Z,1.00
2018-08-11T01:50:00.051Z,1.37
2018-08-11T01:52:34.361Z,1.07
2018-08-11T01:55:09.590Z,0.90
2018-08-11T01:57:43.873Z,1.20
2018-08-11T02:00:20.730Z,1.20
2018-08-11T02:02:55.112Z,1.30
2018-08-11T02:05:29.450Z,1.17
2018-08-11T02:08:03.758Z,1.10
2018-08-11T02:10:38.097Z,0.83
2018-08-11T02:13:12.497Z,1.20
2018-08-11T02:15:46.738Z,1.20
2018-08-11T02:18:20.979Z,1.00
2018-08-11T02:20:55.215Z,1.10
2018-08-11T02:23:29.489Z,1.10
2018-08-11T02:26:03.678Z,0.90
2018-08-11T02:28:37.982Z,1.80
2018-08-11T02:31:12.288Z,1.47
2018-08-11T02:33:47.734Z,1.50
2018-08-11T02:36:21.898Z,1.40
2018-08-11T02:38:56.298Z,1.20
2018-08-11T02:41:30.741Z,1.23
2018-08-11T02:44:05.151Z,0.90
2018-08-11T02:46:39.479Z,1.30
2018-08-11T02:49:13.799Z,1.20
2018-08-11T02:51:48.050Z,0.97
2018-08-11T02:54:22.243Z,1.20
2018-08-11T02:56:56.517Z,1.20
2018-08-11T02:59:30.874Z,1.20
2018-08-11T03:02:05.046Z,1.20
2018-08-11T03:04:39.450Z,1.47
2018-08-11T03:07:13.629Z,1.40
2018-08-11T03:09:47.920Z,1.20
2018-08-11T03:12:22.217Z,1.20
2018-08-11T03:14:56.517Z,1.17
2018-08-11T03:17:30.841Z,1.40
2018-08-11T03:20:07.528Z,1.30
2018-08-11T03:22:42.037Z,1.30
2018-08-11T03:25:16.459Z,1.50
2018-08-11T03:27:50.752Z,1.40
2018-08-11T03:30:25.042Z,1.43
2018-08-11T03:32:59.366Z,1.60
2018-08-11T03:35:33.550Z,1.70
2018-08-11T03:38:07.814Z,2.07
2018-08-11T03:40:41.999Z,1.77
2018-08-11T03:43:16.256Z,1.87
2018-08-11T03:45:50.758Z,1.60
2018-08-11T03:48:25.134Z,1.53
2018-08-11T03:50:59.419Z,2.30
2018-08-11T03:53:33.741Z,2.40
2018-08-11T03:56:08.057Z,2.57
2018-08-11T03:58:42.391Z,3.10
2018-08-11T04:01:16.806Z,2.60
2018-08-11T04:03:51.258Z,2.83
2018-08-11T04:06:25.542Z,2.80
2018-08-11T04:08:59.805Z,2.97
2018-08-11T04:11:34.095Z,2.67
2018-08-11T04:14:08.478Z,2.50
2018-08-11T04:16:42.782Z,2.93
2018-08-11T04:19:17.101Z,3.10
2018-08-11T04:21:51.461Z,3.20
2018-08-11T04:24:25.934Z,3.00
2018-08-11T04:27:00.082Z,3.00
2018-08-11T04:29:34.395Z,3.00
2018-08-11T04:32:08.831Z,2.70
2018-08-11T04:34:43.001Z,2.30
2018-08-11T04:37:17.502Z,1.83
2018-08-11T04:42:31.806Z,1.73
2018-08-11T04:45:06.606Z,1.67
2018-08-11T04:47:40.785Z,1.70
2018-08-11T04:50:14.970Z,1.90
2018-08-11T04:52:49.346Z,1.60
2018-08-11T04:55:23.528Z,2.00
2018-08-11T04:57:57.810Z,2.43
2018-08-11T05:00:31.994Z,1.70
2018-08-11T05:03:06.295Z,1.77
2018-08-11T05:05:40.595Z,1.93
2018-08-11T05:08:14.931Z,1.90
2018-08-11T05:10:49.179Z,1.70
2018-08-11T05:13:23.479Z,1.60
2018-08-11T05:15:58.022Z,1.50
2018-08-11T05:18:32.343Z,1.57
2018-08-11T05:21:06.585Z,1.57
2018-08-11T05:23:40.919Z,1.53
2018-08-11T05:26:15.164Z,1.50
2018-08-11T05:28:49.301Z,1.50
2018-08-11T05:31:23.691Z,1.73
2018-08-11T05:33:57.989Z,1.60
2018-08-11T05:36:32.317Z,1.63
2018-08-11T05:39:09.331Z,1.77
2018-08-11T05:41:43.656Z,1.90
2018-08-11T05:44:17.879Z,1.70
2018-08-11T05:46:52.179Z,1.80
2018-08-11T05:49:26.438Z,1.50
2018-08-11T05:52:00.665Z,1.40
2018-08-11T05:54:34.957Z,1.60
2018-08-11T05:57:09.270Z,1.50
2018-08-11T05:59:43.579Z,1.67
2018-08-11T06:02:17.959Z,1.60
2018-08-11T06:04:52.311Z,1.63
2018-08-11T06:07:26.698Z,1.60
2018-08-11T06:10:00.957Z,1.60
2018-08-11T06:12:35.387Z,1.40
2018-08-11T06:15:09.785Z,1.47
2018-08-11T06:17:44.070Z,1.50
2018-08-11T06:20:18.352Z,1.87
2018-08-11T06:22:52.605Z,1.40
2018-08-11T06:25:26.893Z,1.47
2018-08-11T06:28:01.169Z,1.40
2018-08-11T06:30:35.481Z,1.67
2018-08-11T06:33:09.759Z,1.53
2018-08-11T06:35:44.031Z,1.80
2018-08-11T06:38:18.230Z,2.40
2018-08-11T06:40:52.787Z,1.67
2018-08-11T06:43:26.977Z,1.50
2018-08-11T06:46:01.247Z,1.80
2018-08-11T06:48:35.558Z,2.10
2018-08-11T06:51:09.751Z,2.70
2018-08-11T06:53:44.071Z,1.80
2018-08-11T06:56:18.371Z,2.87
2018-08-11T06:58:52.603Z,2.67
2018-08-11T07:01:26.778Z,2.80
2018-08-11T07:04:01.128Z,2.40
2018-08-11T07:06:35.353Z,3.13
2018-08-11T07:09:10.450Z,2.90
2018-08-11T07:11:44.815Z,3.20
2018-08-11T07:14:19.046Z,3.63
2018-08-11T07:16:53.359Z,3.30
2018-08-11T07:19:27.717Z,3.80
2018-08-11T07:22:02.054Z,3.50
2018-08-11T07:24:36.358Z,3.50
2018-08-11T07:27:10.570Z,3.30
2018-08-11T07:29:44.817Z,3.40
2018-08-11T07:32:19.079Z,3.70
2018-08-11T07:34:53.237Z,3.40
2018-08-11T07:37:27.708Z,3.80
2018-08-11T07:40:01.993Z,3.77
2018-08-11T07:42:36.275Z,3.33
2018-08-11T07:45:10.568Z,4.20
2018-08-11T07:47:44.827Z,4.10
2018-08-11T07:50:19.038Z,3.87
2018-08-11T07:52:53.205Z,4.10
2018-08-11T07:55:27.481Z,4.80
2018-08-11T07:58:02.086Z,4.23
2018-08-11T08:00:36.471Z,3.87
2018-08-11T08:03:10.903Z,4.23
2018-08-11T08:05:45.197Z,4.00
2018-08-11T08:08:19.537Z,4.50
2018-08-11T08:10:53.757Z,4.20
2018-08-11T08:13:28.193Z,4.03
2018-08-11T08:16:02.550Z,3.90
2018-08-11T08:18:36.875Z,3.90
2018-08-11T08:21:11.317Z,4.07
2018-08-11T08:23:45.778Z,3.43
2018-08-11T08:26:20.256Z,3.67
2018-08-11T08:28:54.382Z,3.77
2018-08-11T08:31:28.647Z,3.70
2018-08-11T08:34:03.005Z,3.73
2018-08-11T08:36:37.278Z,3.43
2018-08-11T08:39:12.611Z,4.03
2018-08-11T08:41:46.914Z,3.53
2018-08-11T08:44:21.158Z,3.80
2018-08-11T08:46:55.315Z,3.33
2018-08-11T08:49:29.759Z,3.20
2018-08-11T08:52:04.035Z,4.10
2018-08-11T08:54:38.181Z,2.90
2018-08-11T08:57:12.374Z,3.57
2018-08-11T08:59:46.625Z,3.53
2018-08-11T09:02:20.861Z,3.20
2018-08-11T09:04:55.292Z,3.27
2018-08-11T09:07:29.470Z,3.57
2018-08-11T09:10:04.270Z,3.23
2018-08-11T09:12:38.631Z,3.10
2018-08-11T09:15:14.047Z,3.40
2018-08-11T09:17:48.385Z,3.20
2018-08-11T09:20:22.691Z,3.50
2018-08-11T09:22:57.399Z,3.20
2018-08-11T09:25:32.825Z,3.17
2018-08-11T09:28:07.249Z,3.17
2018-08-11T09:30:41.546Z,2.83
2018-08-11T09:33:15.825Z,2.63
2018-08-11T09:35:50.257Z,2.83
2018-08-11T09:38:24.580Z,3.10
2018-08-11T09:40:58.819Z,3.00
2018-08-11T09:43:33.270Z,2.93
2018-08-11T09:46:07.730Z,3.10
2018-08-11T09:48:41.905Z,2.87
2018-08-11T09:51:16.168Z,3.40
2018-08-11T09:53:50.470Z,3.20
2018-08-11T09:56:24.786Z,3.23
2018-08-11T09:58:59.079Z,2.87
2018-08-11T10:01:38.746Z,2.20
2018-08-11T10:04:13.464Z,2.50
2018-08-11T10:06:47.617Z,2.10
2018-08-11T10:09:21.935Z,2.27
2018-08-11T10:11:56.350Z,2.30
2018-08-11T10:14:30.877Z,2.50
2018-08-11T10:17:05.282Z,2.87
2018-08-11T10:19:39.458Z,2.53
2018-08-11T10:22:13.694Z,2.90
2018-08-11T10:24:48.022Z,2.07
2018-08-11T10:27:22.269Z,2.20
2018-08-11T10:29:56.471Z,2.03
2018-08-11T10:32:30.820Z,2.20
2018-08-11T10:35:05.898Z,1.93
2018-08-11T10:37:40.222Z,1.73
2018-08-11T10:40:14.465Z,1.80
2018-08-11T10:42:48.690Z,2.02
2018-08-11T10:45:22.845Z,1.60
2018-08-11T10:47:56.997Z,1.57
2018-08-11T10:50:31.295Z,1.50
2018-08-11T10:53:05.682Z,1.90
2018-08-11T10:55:40.088Z,1.80
2018-08-11T10:58:14.363Z,1.83
2018-08-11T11:00:48.561Z,1.40
2018-08-11T11:03:22.969Z,1.50
2018-08-11T11:05:57.233Z,1.60
2018-08-11T11:08:31.608Z,1.37
2018-08-11T11:11:05.754Z,1.30
2018-08-11T11:13:40.179Z,1.50
2018-08-11T11:16:15.036Z,1.40
2018-08-11T11:18:49.374Z,1.40
2018-08-11T11:21:23.668Z,1.40
2018-08-11T11:23:58.053Z,1.27
2018-08-11T11:26:32.330Z,1.60
2018-08-11T11:29:06.557Z,1.67
2018-08-11T11:31:40.786Z,1.50
2018-08-11T11:34:15.341Z,1.60
2018-08-11T11:36:49.537Z,1.20
2018-08-11T11:39:23.829Z,1.30
2018-08-11T11:41:58.252Z,1.20
2018-08-11T11:44:32.554Z,1.30
2018-08-11T11:47:07.722Z,1.40
2018-08-11T11:49:42.017Z,1.10
2018-08-11T11:52:16.346Z,1.10
2018-08-11T11:54:50.805Z,1.03
2018-08-11T11:57:25.042Z,1.30
2018-08-11T11:59:59.321Z,1.10
2018-08-11T12:02:34.048Z,1.00
2018-08-11T12:05:08.306Z,1.10
2018-08-11T12:07:42.629Z,1.10
2018-08-11T12:10:16.854Z,1.10
2018-08-11T12:12:51.171Z,0.83
2018-08-11T12:15:25.466Z,0.90
2018-08-11T12:17:59.868Z,1.00
2018-08-11T12:20:34.150Z,1.00
2018-08-11T12:23:08.477Z,1.37
2018-08-11T12:25:42.794Z,0.90
2018-08-11T12:28:17.110Z,1.50
2018-08-11T12:30:51.342Z,1.10
2018-08-11T12:33:25.670Z,2.07
2018-08-11T12:35:59.921Z,1.03
2018-08-11T12:38:34.221Z,1.40
2018-08-11T12:41:08.525Z,1.37
2018-08-11T12:43:42.898Z,1.17
2018-08-11T12:46:17.800Z,1.00
2018-08-11T12:48:52.417Z,1.20
2018-08-11T12:51:26.591Z,0.83
2018-08-11T12:54:01.110Z,1.00
2018-08-11T12:56:35.457Z,0.93
2018-08-11T12:59:09.863Z,0.93
2018-08-11T13:01:44.103Z,1.27
2018-08-11T13:04:18.416Z,1.13
2018-08-11T13:06:53.004Z,1.20
2018-08-11T13:09:27.523Z,1.60
2018-08-11T13:12:03.432Z,1.20
2018-08-11T13:14:38.386Z,1.10
2018-08-11T13:17:13.595Z,1.40
2018-08-11T13:19:47.837Z,1.20
2018-08-11T13:22:22.137Z,1.10
2018-08-11T13:24:56.574Z,1.03
2018-08-11T13:27:30.889Z,1.10
2018-08-11T13:30:06.590Z,0.80
2018-08-11T13:32:40.938Z,0.73
2018-08-11T13:35:15.263Z,0.70
2018-08-11T13:37:49.638Z,1.10
2018-08-11T13:40:23.981Z,1.10
2018-08-11T13:42:58.166Z,0.90
2018-08-11T13:45:32.466Z,1.00
2018-08-11T13:48:06.952Z,0.87
2018-08-11T13:50:41.333Z,1.00
2018-08-11T13:53:15.690Z,1.00
2018-08-11T13:55:49.982Z,1.40
2018-08-11T13:58:24.134Z,1.00
2018-08-11T14:00:58.621Z,1.13
2018-08-11T14:03:32.942Z,1.00
2018-08-11T14:06:07.197Z,1.10
2018-08-11T14:08:41.543Z,1.20
2018-08-11T14:11:15.869Z,0.93
2018-08-11T14:13:50.198Z,1.43
2018-08-11T14:16:24.431Z,1.20
2018-08-11T14:18:58.734Z,1.20
2018-08-11T14:21:33.057Z,1.53
2018-08-11T14:24:07.307Z,1.03
2018-08-11T14:26:41.492Z,1.07
2018-08-11T14:29:15.922Z,1.07
2018-08-11T14:31:50.114Z,1.10
2018-08-11T14:34:24.396Z,1.50
2018-08-11T14:36:58.558Z,1.00
2018-08-11T14:39:32.849Z,1.20
2018-08-11T14:42:07.173Z,1.10
2018-08-11T14:44:41.365Z,1.00
2018-08-11T14:47:15.841Z,0.90
2018-08-11T14:49:50.047Z,1.17
2018-08-11T14:52:24.332Z,0.93
2018-08-11T14:54:58.621Z,1.00
2018-08-11T14:57:32.887Z,1.00
2018-08-11T15:00:10.078Z,0.70
2018-08-11T15:02:44.332Z,0.83
2018-08-11T15:05:18.518Z,0.80
2018-08-11T15:07:52.809Z,1.23
2018-08-11T15:10:27.217Z,1.43
2018-08-11T15:13:01.502Z,1.33
2018-08-11T15:15:35.850Z,1.13
2018-08-11T15:18:10.131Z,1.00
2018-08-11T15:20:44.464Z,1.40
2018-08-11T15:23:18.783Z,1.10
2018-08-11T15:25:53.018Z,1.00
2018-08-11T15:28:27.350Z,1.30
2018-08-11T15:31:01.701Z,1.20
2018-08-11T15:33:35.978Z,1.30
2018-08-11T15:36:10.392Z,0.80
2018-08-11T15:38:44.702Z,1.30
2018-08-11T15:41:18.983Z,1.40
2018-08-11T15:43:53.142Z,1.40
2018-08-11T15:46:27.558Z,1.33
2018-08-11T15:49:01.828Z,1.10
2018-08-11T15:51:36.111Z,1.23
2018-08-11T15:54:10.502Z,1.70
2018-08-11T15:56:44.868Z,1.27
2018-08-11T15:59:19.257Z,1.17
2018-08-11T16:01:53.634Z,1.47
2018-08-11T16:04:27.961Z,1.10
2018-08-11T16:07:02.346Z,1.10
2018-08-11T16:09:36.571Z,1.30
2018-08-11T16:12:10.819Z,1.17
2018-08-11T16:14:45.141Z,0.90
2018-08-11T16:17:19.502Z,1.10
2018-08-11T16:19:53.843Z,1.30
2018-08-11T16:22:28.337Z,1.10
2018-08-11T16:25:02.521Z,1.50
2018-08-11T16:27:37.030Z,1.20
2018-08-11T16:30:12.523Z,1.03
2018-08-11T16:32:46.919Z,1.20
2018-08-11T16:35:21.153Z,1.50
2018-08-11T16:37:55.453Z,1.10
2018-08-11T16:40:29.865Z,1.50
2018-08-11T16:43:04.318Z,1.70
2018-08-11T16:45:38.588Z,1.37
2018-08-11T16:48:12.782Z,1.10
2018-08-11T16:50:47.173Z,1.07
2018-08-11T16:53:21.573Z,1.10
2018-08-11T16:55:55.837Z,1.00
2018-08-11T16:58:30.134Z,1.23
2018-08-11T17:01:04.534Z,1.10
2018-08-11T17:03:38.761Z,1.00
2018-08-11T17:06:12.921Z,0.90
2018-08-11T17:08:47.365Z,1.10
2018-08-11T17:11:21.518Z,1.30
2018-08-11T17:13:55.777Z,1.20
2018-08-11T17:16:30.058Z,1.27
2018-08-11T17:19:04.183Z,1.20
2018-08-11T17:21:38.522Z,1.40
2018-08-11T17:24:12.775Z,0.90
2018-08-11T17:26:46.995Z,1.43
2018-08-11T17:29:21.322Z,1.40
2018-08-11T17:31:55.674Z,1.20
2018-08-11T17:34:30.038Z,1.40
2018-08-11T17:37:04.405Z,1.37
2018-08-11T17:39:38.858Z,1.10
2018-08-11T17:42:13.021Z,1.30
2018-08-11T17:44:47.376Z,1.00
2018-08-11T17:47:21.679Z,0.90
2018-08-11T17:49:55.973Z,0.70
2018-08-11T17:52:30.262Z,0.80
2018-08-11T17:55:04.706Z,0.90
2018-08-11T17:57:38.841Z,0.80
2018-08-11T18:00:13.127Z,0.70
2018-08-11T18:02:47.441Z,1.50
2018-08-11T18:05:21.738Z,1.17
2018-08-11T18:07:56.035Z,1.10
2018-08-11T18:10:30.258Z,0.80
2018-08-11T18:13:04.465Z,1.23
2018-08-11T18:15:38.746Z,1.20
2018-08-11T18:18:13.022Z,1.27
2018-08-11T18:20:47.297Z,0.97
2018-08-11T18:23:21.578Z,0.97
2018-08-11T18:25:55.927Z,0.90
2018-08-11T18:28:30.213Z,1.40
2018-08-11T18:31:04.405Z,1.13
2018-08-11T18:33:38.571Z,1.30
2018-08-11T18:36:12.901Z,1.30
2018-08-11T18:38:47.277Z,1.20
2018-08-11T18:41:21.506Z,1.50
2018-08-11T18:43:55.827Z,0.90
2018-08-11T18:46:30.143Z,1.27
2018-08-11T18:49:04.646Z,1.17
2018-08-11T18:51:38.925Z,1.03
2018-08-11T18:54:13.249Z,0.90
2018-08-11T18:56:47.550Z,1.50
2018-08-11T18:59:21.842Z,1.00
2018-08-11T19:01:56.126Z,0.80
2018-08-11T19:04:30.470Z,1.10
2018-08-11T19:07:04.697Z,0.90
2018-08-11T19:09:38.993Z,1.00
2018-08-11T19:12:13.317Z,1.13
2018-08-11T19:14:47.613Z,0.93
2018-08-11T19:17:21.886Z,1.17
2018-08-11T19:19:56.320Z,1.20
2018-08-11T19:22:30.513Z,1.23
2018-08-11T19:25:05.291Z,1.10
2018-08-11T19:27:39.593Z,1.13
2018-08-11T19:30:13.793Z,1.00
2018-08-11T19:32:47.975Z,1.10
2018-08-11T19:35:22.313Z,1.30
2018-08-11T19:37:56.578Z,0.97
2018-08-11T19:40:30.873Z,1.37
2018-08-11T19:43:05.233Z,1.10
2018-08-11T19:45:39.538Z,1.00
2018-08-11T19:48:13.688Z,1.07
2018-08-11T19:50:48.163Z,1.10
2018-08-11T19:53:22.430Z,1.10
2018-08-11T19:55:56.825Z,1.07
2018-08-11T19:58:31.041Z,1.03
2018-08-11T20:01:05.349Z,1.10
2018-08-11T20:03:39.616Z,1.00
2018-08-11T20:06:14.058Z,0.73
2018-08-11T20:08:48.281Z,1.10
2018-08-11T20:11:22.663Z,1.00
2018-08-11T20:13:56.872Z,1.10
2018-08-11T20:16:31.185Z,1.20
2018-08-11T20:19:05.467Z,1.20
2018-08-11T20:21:39.606Z,1.10
2018-08-11T20:24:14.031Z,1.03
2018-08-11T20:26:48.281Z,1.10
2018-08-11T20:29:22.605Z,1.30
2018-08-11T20:31:56.899Z,1.00
2018-08-11T20:34:31.219Z,0.90
2018-08-11T20:37:05.514Z,1.00
2018-08-11T20:39:40.245Z,1.00
2018-08-11T20:42:14.573Z,1.03
2018-08-11T20:44:49.038Z,1.30
2018-08-11T20:47:23.344Z,1.00
2018-08-11T20:49:57.593Z,1.20
2018-08-11T20:52:31.721Z,1.50
2018-08-11T20:55:06.661Z,1.13
2018-08-11T20:57:40.962Z,1.10
2018-08-11T21:00:15.362Z,1.30
2018-08-11T21:02:49.661Z,1.20
2018-08-11T21:05:23.985Z,1.50
2018-08-11T21:07:58.245Z,1.20
2018-08-11T21:10:32.447Z,1.10
2018-08-11T21:13:07.064Z,1.20
2018-08-11T21:15:41.433Z,1.00
2018-08-11T21:18:15.741Z,1.67
2018-08-11T21:20:50.069Z,1.30
2018-08-11T21:23:24.447Z,1.40
2018-08-11T21:25:58.874Z,1.37
2018-08-11T21:28:33.158Z,1.27
2018-08-11T21:31:07.434Z,1.17
2018-08-11T21:33:41.734Z,1.47
2018-08-11T21:36:16.097Z,1.30
2018-08-11T21:38:50.326Z,1.23
2018-08-11T21:41:24.663Z,1.10
2018-08-11T21:43:58.952Z,1.20
2018-08-11T21:46:33.273Z,1.20
2018-08-11T21:49:08.653Z,1.23
2018-08-11T21:51:42.839Z,1.00
2018-08-11T21:54:17.174Z,1.47
2018-08-11T21:56:51.505Z,1.10
2018-08-11T21:59:25.795Z,1.20
2018-08-11T22:02:00.137Z,1.53
2018-08-11T22:04:35.391Z,1.30
2018-08-11T22:07:09.734Z,1.33
2018-08-11T22:09:44.064Z,1.70
2018-08-11T22:12:18.414Z,1.20
2018-08-11T22:14:52.707Z,1.60
2018-08-11T22:17:27.070Z,1.83
2018-08-11T22:20:01.350Z,1.57
2018-08-11T22:22:35.706Z,1.40
2018-08-11T22:25:10.658Z,1.87
2018-08-11T22:27:45.485Z,1.27
2018-08-11T22:30:19.728Z,1.50
2018-08-11T22:32:53.970Z,1.50
2018-08-11T22:35:28.325Z,1.40
2018-08-11T22:38:02.617Z,1.53
2018-08-11T22:40:36.977Z,1.40
2018-08-11T22:43:11.393Z,1.27
2018-08-11T22:45:45.704Z,1.43
2018-08-11T22:48:19.962Z,1.50
2018-08-11T22:50:54.277Z,1.67
2018-08-11T22:53:28.605Z,1.60
2018-08-11T22:56:03.174Z,1.83
2018-08-11T22:58:37.389Z,1.50
2018-08-11T23:01:11.575Z,1.93
2018-08-11T23:03:45.849Z,1.63
2018-08-11T23:06:20.174Z,1.37
2018-08-11T23:08:54.449Z,1.30
2018-08-11T23:11:28.771Z,1.20
2018-08-11T23:14:03.014Z,1.50
2018-08-11T23:16:37.393Z,1.40
2018-08-11T23:19:11.701Z,1.77
2018-08-11T23:21:47.118Z,1.40
2018-08-11T23:24:21.448Z,1.40
2018-08-11T23:26:55.769Z,1.50
2018-08-11T23:29:30.047Z,1.70
2018-08-11T23:32:04.465Z,1.57
2018-08-11T23:34:38.542Z,1.73
2018-08-11T23:37:12.754Z,1.43
2018-08-11T23:39:47.190Z,1.60
2018-08-11T23:42:21.513Z,1.40
2018-08-11T23:44:55.774Z,1.80
2018-08-11T23:47:30.107Z,1.73
2018-08-11T23:50:05.294Z,1.43
2018-08-11T23:52:40.538Z,1.57
2018-08-11T23:55:15.137Z,1.70
2018-08-11T23:57:49.327Z,1.77
